sensor_id;sensor_type;location;lat;lon;timestamp;temperature;humidity
4002;DHT22;2015;48.670;9.060;2023-12-29T00:02:14;8.70;99.90
4002;DHT22;2015;48.670;9.060;2023-12-29T00:04:46;8.70;99.90
4002;DHT22;2015;48.670;9.060;2023-12-29T00:07:18;8.60;99.90
4002;DHT22;2015;48.670;9.060;2023-12-29T00:09:52;8.60;99.90
4002;DHT22;2015;48.670;9.060;2023-12-29T00:12:24;8.60;99.90
4002;DHT22;2015;48.670;9.060;2023-12-29T00:14:56;8.60;99.90
4002;DHT22;2015;48.670;9.060;2023-12-29T00:17:28;8.50;99.90
4002;DHT22;2015;48.670;9.060;2023-12-29T00:20:00;8.40;99.90
4002;DHT22;2015;48.670;9.060;2023-12-29T00:22:32;8.40;99.90
4002;DHT22;2015;48.670;9.060;2023-12-29T00:25:04;8.40;99.90
4002;DHT22;2015;48.670;9.060;2023-12-29T00:27:37;8.40;99.90
4002;DHT22;2015;48.670;9.060;2023-12-29T00:30:09;8.40;99.90
4002;DHT22;2015;48.670;9.060;2023-12-29T00:32:41;8.40;99.90
4002;DHT22;2015;48.670;9.060;2023-12-29T00:35:12;8.40;99.90
4002;DHT22;2015;48.670;9.060;2023-12-29T00:37:44;8.40;99.90
4002;DHT22;2015;48.670;9.060;2023-12-29T00:40:16;8.40;99.90
4002;DHT22;2015;48.670;9.060;2023-12-29T00:42:48;8.40;99.90
4002;DHT22;2015;48.670;9.060;2023-12-29T00:45:20;8.40;99.90
4002;DHT22;2015;48.670;9.060;2023-12-29T00:47:52;8.40;99.90
4002;DHT22;2015;48.670;9.060;2023-12-29T00:50:25;8.40;99.90
4002;DHT22;2015;48.670;9.060;2023-12-29T00:52:58;8.30;99.90
4002;DHT22;2015;48.670;9.060;2023-12-29T00:55:29;8.20;99.90
4002;DHT22;2015;48.670;9.060;2023-12-29T00:58:01;8.20;99.90
4002;DHT22;2015;48.670;9.060;2023-12-29T01:00:33;8.20;99.90
4002;DHT22;2015;48.670;9.060;2023-12-29T01:03:05;8.10;99.90
4002;DHT22;2015;48.670;9.060;2023-12-29T01:05:37;8.20;99.90
4002;DHT22;2015;48.670;9.060;2023-12-29T01:08:09;8.30;99.90
4002;DHT22;2015;48.670;9.060;2023-12-29T01:10:41;8.30;99.90
4002;DHT22;2015;48.670;9.060;2023-12-29T01:13:13;8.40;99.90
4002;DHT22;2015;48.670;9.060;2023-12-29T01:15:44;8.40;99.90
4002;DHT22;2015;48.670;9.060;2023-12-29T01:18:17;8.50;99.90
4002;DHT22;2015;48.670;9.060;2023-12-29T01:20:49;8.50;99.90
4002;DHT22;2015;48.670;9.060;2023-12-29T01:23:21;8.40;99.90
4002;DHT22;2015;48.670;9.060;2023-12-29T01:25:53;8.40;99.90
4002;DHT22;2015;48.670;9.060;2023-12-29T01:28:24;8.30;99.90
4002;DHT22;2015;48.670;9.060;2023-12-29T01:30:57;8.40;99.90
4002;DHT22;2015;48.670;9.060;2023-12-29T01:33:29;8.40;99.90
4002;DHT22;2015;48.670;9.060;2023-12-29T01:36:01;8.40;99.90
4002;DHT22;2015;48.670;9.060;2023-12-29T01:38:45;8.40;99.90
4002;DHT22;2015;48.670;9.060;2023-12-29T01:41:20;8.50;99.90
4002;DHT22;2015;48.670;9.060;2023-12-29T01:46:34;8.50;99.90
4002;DHT22;2015;48.670;9.060;2023-12-29T01:49:06;8.50;99.90
4002;DHT22;2015;48.670;9.060;2023-12-29T01:51:38;8.50;99.90
4002;DHT22;2015;48.670;9.060;2023-12-29T01:54:11;8.50;99.90
4002;DHT22;2015;48.670;9.060;2023-12-29T01:56:44;8.50;99.90
4002;DHT22;2015;48.670;9.060;2023-12-29T01:59:16;8.50;99.90
4002;DHT22;2015;48.670;9.060;2023-12-29T02:01:57;8.50;99.90
4002;DHT22;2015;48.670;9.060;2023-12-29T02:04:30;8.50;99.90
4002;DHT22;2015;48.670;9.060;2023-12-29T02:07:03;8.50;99.90
4002;DHT22;2015;48.670;9.060;2023-12-29T02:09:35;8.60;99.90
4002;DHT22;2015;48.670;9.060;2023-12-29T02:12:07;8.60;99.90
4002;DHT22;2015;48.670;9.060;2023-12-29T02:14:39;8.60;99.90
4002;DHT22;2015;48.670;9.060;2023-12-29T02:17:26;8.60;99.90
4002;DHT22;2015;48.670;9.060;2023-12-29T02:19:58;8.60;99.90
4002;DHT22;2015;48.670;9.060;2023-12-29T02:22:30;8.60;99.90
4002;DHT22;2015;48.670;9.060;2023-12-29T02:25:03;8.60;99.90
4002;DHT22;2015;48.670;9.060;2023-12-29T02:27:49;8.60;99.90
4002;DHT22;2015;48.670;9.060;2023-12-29T02:31:13;8.60;99.90
4002;DHT22;2015;48.670;9.060;2023-12-29T02:33:24;8.60;99.90
4002;DHT22;2015;48.670;9.060;2023-12-29T02:35:59;8.60;99.90
4002;DHT22;2015;48.670;9.060;2023-12-29T02:38:32;8.50;99.90
4002;DHT22;2015;48.670;9.060;2023-12-29T02:41:05;8.50;99.90
4002;DHT22;2015;48.670;9.060;2023-12-29T02:43:37;8.50;99.90
4002;DHT22;2015;48.670;9.060;2023-12-29T02:46:09;8.50;99.90
4002;DHT22;2015;48.670;9.060;2023-12-29T02:48:41;8.50;99.90
4002;DHT22;2015;48.670;9.060;2023-12-29T02:51:13;8.40;99.90
4002;DHT22;2015;48.670;9.060;2023-12-29T02:53:45;8.40;99.90
4002;DHT22;2015;48.670;9.060;2023-12-29T02:56:16;8.40;99.90
4002;DHT22;2015;48.670;9.060;2023-12-29T02:58:48;8.30;99.90
4002;DHT22;2015;48.670;9.060;2023-12-29T03:01:20;8.30;99.90
4002;DHT22;2015;48.670;9.060;2023-12-29T03:03:52;8.20;99.90
4002;DHT22;2015;48.670;9.060;2023-12-29T03:06:24;8.20;99.90
4002;DHT22;2015;48.670;9.060;2023-12-29T03:08:56;8.20;99.90
4002;DHT22;2015;48.670;9.060;2023-12-29T03:11:28;8.30;99.90
4002;DHT22;2015;48.670;9.060;2023-12-29T03:14:00;8.30;99.90
4002;DHT22;2015;48.670;9.060;2023-12-29T03:16:32;8.30;99.90
4002;DHT22;2015;48.670;9.060;2023-12-29T03:19:03;8.30;99.90
4002;DHT22;2015;48.670;9.060;2023-12-29T03:21:35;8.30;99.90
4002;DHT22;2015;48.670;9.060;2023-12-29T03:24:07;8.30;99.90
4002;DHT22;2015;48.670;9.060;2023-12-29T03:26:39;8.30;99.90
4002;DHT22;2015;48.670;9.060;2023-12-29T03:29:11;8.30;99.90
4002;DHT22;2015;48.670;9.060;2023-12-29T03:31:43;8.30;99.90
4002;DHT22;2015;48.670;9.060;2023-12-29T03:34:16;8.40;99.90
4002;DHT22;2015;48.670;9.060;2023-12-29T03:36:47;8.40;99.90
4002;DHT22;2015;48.670;9.060;2023-12-29T03:39:20;8.40;99.90
4002;DHT22;2015;48.670;9.060;2023-12-29T03:41:51;8.40;99.90
4002;DHT22;2015;48.670;9.060;2023-12-29T03:44:23;8.40;99.90
4002;DHT22;2015;48.670;9.060;2023-12-29T03:46:55;8.30;99.90
4002;DHT22;2015;48.670;9.060;2023-12-29T03:49:27;8.30;99.90
4002;DHT22;2015;48.670;9.060;2023-12-29T03:51:59;8.20;99.90
4002;DHT22;2015;48.670;9.060;2023-12-29T03:54:31;8.10;99.90
4002;DHT22;2015;48.670;9.060;2023-12-29T03:57:02;8.00;99.90
4002;DHT22;2015;48.670;9.060;2023-12-29T03:59:37;7.90;99.90
4002;DHT22;2015;48.670;9.060;2023-12-29T04:02:09;7.90;99.90
4002;DHT22;2015;48.670;9.060;2023-12-29T04:04:41;7.80;99.90
4002;DHT22;2015;48.670;9.060;2023-12-29T04:07:13;7.80;99.90
4002;DHT22;2015;48.670;9.060;2023-12-29T04:09:45;7.80;99.90
4002;DHT22;2015;48.670;9.060;2023-12-29T04:12:16;7.80;99.90
4002;DHT22;2015;48.670;9.060;2023-12-29T04:14:48;7.90;99.90
4002;DHT22;2015;48.670;9.060;2023-12-29T04:17:20;7.90;99.90
4002;DHT22;2015;48.670;9.060;2023-12-29T04:19:52;7.90;99.90
4002;DHT22;2015;48.670;9.060;2023-12-29T04:22:24;7.90;99.90
4002;DHT22;2015;48.670;9.060;2023-12-29T04:24:56;7.90;99.90
4002;DHT22;2015;48.670;9.060;2023-12-29T04:27:28;8.00;99.90
4002;DHT22;2015;48.670;9.060;2023-12-29T04:30:00;8.00;99.90
4002;DHT22;2015;48.670;9.060;2023-12-29T04:32:32;8.10;99.90
4002;DHT22;2015;48.670;9.060;2023-12-29T04:35:04;8.10;99.90
4002;DHT22;2015;48.670;9.060;2023-12-29T04:37:36;8.10;99.90
4002;DHT22;2015;48.670;9.060;2023-12-29T04:40:08;8.10;99.90
4002;DHT22;2015;48.670;9.060;2023-12-29T04:42:40;8.00;99.90
4002;DHT22;2015;48.670;9.060;2023-12-29T04:45:12;8.00;99.90
4002;DHT22;2015;48.670;9.060;2023-12-29T04:47:44;7.90;99.90
4002;DHT22;2015;48.670;9.060;2023-12-29T04:50:16;7.90;99.90
4002;DHT22;2015;48.670;9.060;2023-12-29T04:52:48;7.90;99.90
4002;DHT22;2015;48.670;9.060;2023-12-29T04:55:20;7.90;99.90
4002;DHT22;2015;48.670;9.060;2023-12-29T04:57:52;7.90;99.90
4002;DHT22;2015;48.670;9.060;2023-12-29T05:00:24;7.80;99.90
4002;DHT22;2015;48.670;9.060;2023-12-29T05:02:55;7.80;99.90
4002;DHT22;2015;48.670;9.060;2023-12-29T05:05:27;7.70;99.90
4002;DHT22;2015;48.670;9.060;2023-12-29T05:07:59;7.70;99.90
4002;DHT22;2015;48.670;9.060;2023-12-29T05:10:31;7.70;99.90
4002;DHT22;2015;48.670;9.060;2023-12-29T05:13:06;7.70;99.90
4002;DHT22;2015;48.670;9.060;2023-12-29T05:15:38;7.70;99.90
4002;DHT22;2015;48.670;9.060;2023-12-29T05:18:10;7.70;99.90
4002;DHT22;2015;48.670;9.060;2023-12-29T05:20:42;7.70;99.90
4002;DHT22;2015;48.670;9.060;2023-12-29T05:23:13;7.70;99.90
4002;DHT22;2015;48.670;9.060;2023-12-29T05:25:45;7.80;99.90
4002;DHT22;2015;48.670;9.060;2023-12-29T05:28:17;7.80;99.90
4002;DHT22;2015;48.670;9.060;2023-12-29T05:30:49;7.80;99.90
4002;DHT22;2015;48.670;9.060;2023-12-29T05:33:20;7.80;99.90
4002;DHT22;2015;48.670;9.060;2023-12-29T05:35:52;7.80;99.90
4002;DHT22;2015;48.670;9.060;2023-12-29T05:38:25;7.90;99.90
4002;DHT22;2015;48.670;9.060;2023-12-29T05:40:57;8.00;99.90
4002;DHT22;2015;48.670;9.060;2023-12-29T05:43:30;8.00;99.90
4002;DHT22;2015;48.670;9.060;2023-12-29T05:46:02;8.10;99.90
4002;DHT22;2015;48.670;9.060;2023-12-29T05:48:34;8.10;99.90
4002;DHT22;2015;48.670;9.060;2023-12-29T05:51:10;8.10;99.90
4002;DHT22;2015;48.670;9.060;2023-12-29T05:53:42;8.10;99.90
4002;DHT22;2015;48.670;9.060;2023-12-29T05:56:15;8.10;99.90
4002;DHT22;2015;48.670;9.060;2023-12-29T05:58:46;8.10;99.90
4002;DHT22;2015;48.670;9.060;2023-12-29T06:01:19;8.10;99.90
4002;DHT22;2015;48.670;9.060;2023-12-29T06:03:51;8.10;99.90
4002;DHT22;2015;48.670;9.060;2023-12-29T06:06:23;8.00;99.90
4002;DHT22;2015;48.670;9.060;2023-12-29T06:08:55;8.00;99.90
4002;DHT22;2015;48.670;9.060;2023-12-29T06:11:27;8.00;99.90
4002;DHT22;2015;48.670;9.060;2023-12-29T06:13:59;8.00;99.90
4002;DHT22;2015;48.670;9.060;2023-12-29T06:16:30;8.00;99.90
4002;DHT22;2015;48.670;9.060;2023-12-29T06:19:02;8.00;99.90
4002;DHT22;2015;48.670;9.060;2023-12-29T06:21:43;8.00;99.90
4002;DHT22;2015;48.670;9.060;2023-12-29T06:24:15;8.00;99.90
4002;DHT22;2015;48.670;9.060;2023-12-29T06:26:47;8.00;99.90
4002;DHT22;2015;48.670;9.060;2023-12-29T06:29:19;8.00;99.90
4002;DHT22;2015;48.670;9.060;2023-12-29T06:31:51;8.00;99.90
4002;DHT22;2015;48.670;9.060;2023-12-29T06:34:23;8.10;99.90
4002;DHT22;2015;48.670;9.060;2023-12-29T06:36:55;8.10;99.90
4002;DHT22;2015;48.670;9.060;2023-12-29T06:39:26;8.10;99.90
4002;DHT22;2015;48.670;9.060;2023-12-29T06:41:58;8.10;99.90
4002;DHT22;2015;48.670;9.060;2023-12-29T06:44:30;8.10;99.90
4002;DHT22;2015;48.670;9.060;2023-12-29T06:47:02;8.10;99.90
4002;DHT22;2015;48.670;9.060;2023-12-29T06:49:36;8.10;99.90
4002;DHT22;2015;48.670;9.060;2023-12-29T06:52:08;8.10;99.90
4002;DHT22;2015;48.670;9.060;2023-12-29T06:54:40;8.10;99.90
4002;DHT22;2015;48.670;9.060;2023-12-29T06:57:12;8.10;99.90
4002;DHT22;2015;48.670;9.060;2023-12-29T06:59:46;8.10;99.90
4002;DHT22;2015;48.670;9.060;2023-12-29T07:02:18;8.10;99.90
4002;DHT22;2015;48.670;9.060;2023-12-29T07:04:49;8.10;99.90
4002;DHT22;2015;48.670;9.060;2023-12-29T07:07:21;8.10;99.90
4002;DHT22;2015;48.670;9.060;2023-12-29T07:09:53;8.10;99.90
4002;DHT22;2015;48.670;9.060;2023-12-29T07:12:25;8.10;99.90
4002;DHT22;2015;48.670;9.060;2023-12-29T07:14:57;8.10;99.90
4002;DHT22;2015;48.670;9.060;2023-12-29T07:17:29;8.00;99.90
4002;DHT22;2015;48.670;9.060;2023-12-29T07:20:01;8.10;99.90
4002;DHT22;2015;48.670;9.060;2023-12-29T07:22:33;8.10;99.90
4002;DHT22;2015;48.670;9.060;2023-12-29T07:25:05;8.10;99.90
4002;DHT22;2015;48.670;9.060;2023-12-29T07:27:37;8.10;99.90
4002;DHT22;2015;48.670;9.060;2023-12-29T07:30:09;8.10;99.90
4002;DHT22;2015;48.670;9.060;2023-12-29T07:32:41;8.00;99.90
4002;DHT22;2015;48.670;9.060;2023-12-29T07:35:13;8.10;99.90
4002;DHT22;2015;48.670;9.060;2023-12-29T07:37:48;8.10;99.90
4002;DHT22;2015;48.670;9.060;2023-12-29T07:40:20;8.10;99.90
4002;DHT22;2015;48.670;9.060;2023-12-29T07:42:52;8.10;99.90
4002;DHT22;2015;48.670;9.060;2023-12-29T07:45:24;8.10;99.90
4002;DHT22;2015;48.670;9.060;2023-12-29T07:47:56;8.20;99.90
4002;DHT22;2015;48.670;9.060;2023-12-29T07:50:29;8.20;99.90
4002;DHT22;2015;48.670;9.060;2023-12-29T07:53:01;8.20;99.90
4002;DHT22;2015;48.670;9.060;2023-12-29T07:55:38;8.20;99.90
4002;DHT22;2015;48.670;9.060;2023-12-29T07:58:11;8.20;99.90
4002;DHT22;2015;48.670;9.060;2023-12-29T08:00:43;8.20;99.90
4002;DHT22;2015;48.670;9.060;2023-12-29T08:03:15;8.30;99.90
4002;DHT22;2015;48.670;9.060;2023-12-29T08:05:47;8.40;99.90
4002;DHT22;2015;48.670;9.060;2023-12-29T08:08:19;8.40;99.90
4002;DHT22;2015;48.670;9.060;2023-12-29T08:10:50;8.40;99.90
4002;DHT22;2015;48.670;9.060;2023-12-29T08:13:22;8.40;99.90
4002;DHT22;2015;48.670;9.060;2023-12-29T08:15:54;8.40;99.90
4002;DHT22;2015;48.670;9.060;2023-12-29T08:18:26;8.40;99.90
4002;DHT22;2015;48.670;9.060;2023-12-29T08:20:58;8.50;99.90
4002;DHT22;2015;48.670;9.060;2023-12-29T08:23:31;8.50;99.90
4002;DHT22;2015;48.670;9.060;2023-12-29T08:26:03;8.50;99.90
4002;DHT22;2015;48.670;9.060;2023-12-29T08:28:35;8.50;99.90
4002;DHT22;2015;48.670;9.060;2023-12-29T08:31:07;8.60;99.90
4002;DHT22;2015;48.670;9.060;2023-12-29T08:33:40;8.60;99.90
4002;DHT22;2015;48.670;9.060;2023-12-29T08:36:12;8.60;99.90
4002;DHT22;2015;48.670;9.060;2023-12-29T08:38:44;8.70;99.90
4002;DHT22;2015;48.670;9.060;2023-12-29T08:41:16;8.60;99.90
4002;DHT22;2015;48.670;9.060;2023-12-29T08:43:48;8.60;99.90
4002;DHT22;2015;48.670;9.060;2023-12-29T08:46:19;8.60;99.90
4002;DHT22;2015;48.670;9.060;2023-12-29T08:48:51;8.70;99.90
4002;DHT22;2015;48.670;9.060;2023-12-29T08:51:23;8.70;99.90
4002;DHT22;2015;48.670;9.060;2023-12-29T08:53:55;8.70;99.90
4002;DHT22;2015;48.670;9.060;2023-12-29T08:56:27;8.70;99.90
4002;DHT22;2015;48.670;9.060;2023-12-29T08:59:00;8.60;99.90
4002;DHT22;2015;48.670;9.060;2023-12-29T09:01:32;8.60;99.90
4002;DHT22;2015;48.670;9.060;2023-12-29T09:04:05;8.60;99.90
4002;DHT22;2015;48.670;9.060;2023-12-29T09:06:37;8.60;99.90
4002;DHT22;2015;48.670;9.060;2023-12-29T09:09:08;8.60;99.90
4002;DHT22;2015;48.670;9.060;2023-12-29T09:11:44;8.60;99.90
4002;DHT22;2015;48.670;9.060;2023-12-29T09:14:16;8.60;99.90
4002;DHT22;2015;48.670;9.060;2023-12-29T09:16:48;8.70;99.90
4002;DHT22;2015;48.670;9.060;2023-12-29T09:19:20;8.70;99.90
4002;DHT22;2015;48.670;9.060;2023-12-29T09:22:06;8.80;99.90
4002;DHT22;2015;48.670;9.060;2023-12-29T09:24:37;8.80;99.90
4002;DHT22;2015;48.670;9.060;2023-12-29T09:27:09;8.80;99.90
4002;DHT22;2015;48.670;9.060;2023-12-29T09:29:41;8.90;99.90
4002;DHT22;2015;48.670;9.060;2023-12-29T09:32:13;8.90;99.90
4002;DHT22;2015;48.670;9.060;2023-12-29T09:34:45;9.00;99.90
4002;DHT22;2015;48.670;9.060;2023-12-29T09:37:17;9.00;99.90
4002;DHT22;2015;48.670;9.060;2023-12-29T09:39:49;9.20;99.90
4002;DHT22;2015;48.670;9.060;2023-12-29T09:42:21;9.50;99.90
4002;DHT22;2015;48.670;9.060;2023-12-29T09:44:56;9.60;99.90
4002;DHT22;2015;48.670;9.060;2023-12-29T09:47:31;9.50;99.90
4002;DHT22;2015;48.670;9.060;2023-12-29T09:50:06;9.30;99.90
4002;DHT22;2015;48.670;9.060;2023-12-29T09:52:42;9.20;99.90
4002;DHT22;2015;48.670;9.060;2023-12-29T09:55:14;9.10;99.90
4002;DHT22;2015;48.670;9.060;2023-12-29T09:57:47;9.10;99.90
4002;DHT22;2015;48.670;9.060;2023-12-29T10:00:20;9.00;99.90
4002;DHT22;2015;48.670;9.060;2023-12-29T10:02:52;9.00;99.90
4002;DHT22;2015;48.670;9.060;2023-12-29T10:05:25;9.00;99.90
4002;DHT22;2015;48.670;9.060;2023-12-29T10:07:58;8.90;99.90
4002;DHT22;2015;48.670;9.060;2023-12-29T10:10:33;9.00;99.90
4002;DHT22;2015;48.670;9.060;2023-12-29T10:13:10;9.20;99.90
4002;DHT22;2015;48.670;9.060;2023-12-29T10:16:06;9.40;99.90
4002;DHT22;2015;48.670;9.060;2023-12-29T10:18:44;9.70;99.90
4002;DHT22;2015;48.670;9.060;2023-12-29T10:21:29;9.90;99.90
4002;DHT22;2015;48.670;9.060;2023-12-29T10:24:09;10.10;99.90
4002;DHT22;2015;48.670;9.060;2023-12-29T10:26:42;10.20;99.90
4002;DHT22;2015;48.670;9.060;2023-12-29T10:29:15;10.20;99.90
4002;DHT22;2015;48.670;9.060;2023-12-29T10:31:50;10.20;99.90
4002;DHT22;2015;48.670;9.060;2023-12-29T10:34:23;10.20;99.90
4002;DHT22;2015;48.670;9.060;2023-12-29T10:37:02;10.30;99.90
4002;DHT22;2015;48.670;9.060;2023-12-29T10:39:36;10.40;99.90
4002;DHT22;2015;48.670;9.060;2023-12-29T10:42:08;10.50;99.90
4002;DHT22;2015;48.670;9.060;2023-12-29T10:44:40;10.50;99.90
4002;DHT22;2015;48.670;9.060;2023-12-29T10:47:13;10.50;99.90
4002;DHT22;2015;48.670;9.060;2023-12-29T10:49:46;10.60;99.90
4002;DHT22;2015;48.670;9.060;2023-12-29T10:52:18;10.70;99.90
4002;DHT22;2015;48.670;9.060;2023-12-29T10:55:04;10.90;99.90
4002;DHT22;2015;48.670;9.060;2023-12-29T10:57:37;11.10;99.90
4002;DHT22;2015;48.670;9.060;2023-12-29T11:00:09;11.10;99.90
4002;DHT22;2015;48.670;9.060;2023-12-29T11:02:54;11.30;99.90
4002;DHT22;2015;48.670;9.060;2023-12-29T11:05:26;11.40;99.90
4002;DHT22;2015;48.670;9.060;2023-12-29T11:07:58;11.40;99.90
4002;DHT22;2015;48.670;9.060;2023-12-29T11:10:31;11.50;99.90
4002;DHT22;2015;48.670;9.060;2023-12-29T11:13:03;11.60;99.90
4002;DHT22;2015;48.670;9.060;2023-12-29T11:15:35;11.60;99.90
4002;DHT22;2015;48.670;9.060;2023-12-29T11:18:09;12.00;99.90
4002;DHT22;2015;48.670;9.060;2023-12-29T11:20:44;12.80;99.90
4002;DHT22;2015;48.670;9.060;2023-12-29T11:23:17;13.40;99.90
4002;DHT22;2015;48.670;9.060;2023-12-29T11:25:49;13.90;99.90
4002;DHT22;2015;48.670;9.060;2023-12-29T11:28:21;13.60;99.90
4002;DHT22;2015;48.670;9.060;2023-12-29T11:30:53;12.90;99.90
4002;DHT22;2015;48.670;9.060;2023-12-29T11:33:39;12.10;99.90
4002;DHT22;2015;48.670;9.060;2023-12-29T11:36:16;11.60;99.90
4002;DHT22;2015;48.670;9.060;2023-12-29T11:39:40;11.40;99.90
4002;DHT22;2015;48.670;9.060;2023-12-29T11:42:22;11.20;99.90
4002;DHT22;2015;48.670;9.060;2023-12-29T11:44:54;11.10;99.90
4002;DHT22;2015;48.670;9.060;2023-12-29T11:47:37;11.00;99.90
4002;DHT22;2015;48.670;9.060;2023-12-29T11:50:09;11.10;99.90
4002;DHT22;2015;48.670;9.060;2023-12-29T11:52:41;11.00;99.90
4002;DHT22;2015;48.670;9.060;2023-12-29T11:55:14;11.00;99.90
4002;DHT22;2015;48.670;9.060;2023-12-29T11:57:51;11.10;99.90
4002;DHT22;2015;48.670;9.060;2023-12-29T12:00:45;11.00;99.90
4002;DHT22;2015;48.670;9.060;2023-12-29T12:03:27;11.10;99.90
4002;DHT22;2015;48.670;9.060;2023-12-29T12:05:59;11.10;99.90
4002;DHT22;2015;48.670;9.060;2023-12-29T12:08:37;11.10;99.90
4002;DHT22;2015;48.670;9.060;2023-12-29T12:14:09;11.20;99.90
4002;DHT22;2015;48.670;9.060;2023-12-29T12:16:48;11.20;99.90
4002;DHT22;2015;48.670;9.060;2023-12-29T12:19:25;11.10;99.90
4002;DHT22;2015;48.670;9.060;2023-12-29T12:21:59;11.10;99.90
4002;DHT22;2015;48.670;9.060;2023-12-29T12:24:31;11.00;99.90
4002;DHT22;2015;48.670;9.060;2023-12-29T12:27:09;11.00;99.90
4002;DHT22;2015;48.670;9.060;2023-12-29T12:29:41;10.90;99.90
4002;DHT22;2015;48.670;9.060;2023-12-29T12:32:18;10.90;99.90
4002;DHT22;2015;48.670;9.060;2023-12-29T12:34:54;10.90;99.90
4002;DHT22;2015;48.670;9.060;2023-12-29T12:37:27;10.90;99.90
4002;DHT22;2015;48.670;9.060;2023-12-29T12:39:59;10.90;99.90
4002;DHT22;2015;48.670;9.060;2023-12-29T12:42:31;10.90;99.90
4002;DHT22;2015;48.670;9.060;2023-12-29T12:45:06;10.90;99.90
4002;DHT22;2015;48.670;9.060;2023-12-29T12:47:45;10.90;99.90
4002;DHT22;2015;48.670;9.060;2023-12-29T12:50:17;10.90;99.90
4002;DHT22;2015;48.670;9.060;2023-12-29T12:52:49;10.90;99.90
4002;DHT22;2015;48.670;9.060;2023-12-29T12:55:21;11.00;99.90
4002;DHT22;2015;48.670;9.060;2023-12-29T12:57:54;11.00;99.90
4002;DHT22;2015;48.670;9.060;2023-12-29T13:00:28;11.00;99.90
4002;DHT22;2015;48.670;9.060;2023-12-29T13:03:01;11.10;99.90
4002;DHT22;2015;48.670;9.060;2023-12-29T13:05:35;11.10;99.90
4002;DHT22;2015;48.670;9.060;2023-12-29T13:08:08;11.20;99.90
4002;DHT22;2015;48.670;9.060;2023-12-29T13:10:41;11.20;99.90
4002;DHT22;2015;48.670;9.060;2023-12-29T13:13:14;11.30;99.90
4002;DHT22;2015;48.670;9.060;2023-12-29T13:15:49;11.20;99.90
4002;DHT22;2015;48.670;9.060;2023-12-29T13:18:30;11.20;99.90
4002;DHT22;2015;48.670;9.060;2023-12-29T13:21:06;11.30;99.90
4002;DHT22;2015;48.670;9.060;2023-12-29T13:23:39;11.30;99.90
4002;DHT22;2015;48.670;9.060;2023-12-29T13:26:11;11.30;99.90
4002;DHT22;2015;48.670;9.060;2023-12-29T13:28:43;11.40;99.90
4002;DHT22;2015;48.670;9.060;2023-12-29T13:31:15;11.30;99.90
4002;DHT22;2015;48.670;9.060;2023-12-29T13:33:57;11.30;99.90
4002;DHT22;2015;48.670;9.060;2023-12-29T13:37:36;11.20;99.90
4002;DHT22;2015;48.670;9.060;2023-12-29T13:39:48;11.20;99.90
4002;DHT22;2015;48.670;9.060;2023-12-29T13:42:24;11.10;99.90
4002;DHT22;2015;48.670;9.060;2023-12-29T13:44:59;11.10;99.90
4002;DHT22;2015;48.670;9.060;2023-12-29T13:47:32;11.10;99.90
4002;DHT22;2015;48.670;9.060;2023-12-29T13:50:05;11.20;99.90
4002;DHT22;2015;48.670;9.060;2023-12-29T13:52:40;11.20;99.90
4002;DHT22;2015;48.670;9.060;2023-12-29T13:55:23;11.20;99.90
4002;DHT22;2015;48.670;9.060;2023-12-29T13:57:56;11.20;99.90
4002;DHT22;2015;48.670;9.060;2023-12-29T14:00:28;11.20;99.90
4002;DHT22;2015;48.670;9.060;2023-12-29T14:03:06;11.20;99.90
4002;DHT22;2015;48.670;9.060;2023-12-29T14:05:59;11.10;99.90
4002;DHT22;2015;48.670;9.060;2023-12-29T14:08:40;11.10;99.90
4002;DHT22;2015;48.670;9.060;2023-12-29T14:11:13;11.10;99.90
4002;DHT22;2015;48.670;9.060;2023-12-29T14:13:45;11.10;99.90
4002;DHT22;2015;48.670;9.060;2023-12-29T14:16:17;11.10;99.90
4002;DHT22;2015;48.670;9.060;2023-12-29T14:18:54;11.00;99.90
4002;DHT22;2015;48.670;9.060;2023-12-29T14:24:15;10.90;99.90
4002;DHT22;2015;48.670;9.060;2023-12-29T14:29:26;10.90;99.90
4002;DHT22;2015;48.670;9.060;2023-12-29T14:31:58;10.90;99.90
4002;DHT22;2015;48.670;9.060;2023-12-29T14:34:31;10.90;99.90
4002;DHT22;2015;48.670;9.060;2023-12-29T14:37:03;10.80;99.90
4002;DHT22;2015;48.670;9.060;2023-12-29T14:39:35;10.80;99.90
4002;DHT22;2015;48.670;9.060;2023-12-29T14:42:07;10.80;99.90
4002;DHT22;2015;48.670;9.060;2023-12-29T14:44:39;10.70;99.90
4002;DHT22;2015;48.670;9.060;2023-12-29T14:47:11;10.60;99.90
4002;DHT22;2015;48.670;9.060;2023-12-29T14:49:43;10.60;99.90
4002;DHT22;2015;48.670;9.060;2023-12-29T14:52:16;10.60;99.90
4002;DHT22;2015;48.670;9.060;2023-12-29T14:54:48;10.50;99.90
4002;DHT22;2015;48.670;9.060;2023-12-29T14:57:20;10.50;99.90
4002;DHT22;2015;48.670;9.060;2023-12-29T14:59:52;10.40;99.90
4002;DHT22;2015;48.670;9.060;2023-12-29T15:02:24;10.40;99.90
4002;DHT22;2015;48.670;9.060;2023-12-29T15:04:56;10.40;99.90
4002;DHT22;2015;48.670;9.060;2023-12-29T15:07:27;10.40;99.90
4002;DHT22;2015;48.670;9.060;2023-12-29T15:10:02;10.30;99.90
4002;DHT22;2015;48.670;9.060;2023-12-29T15:12:34;10.20;99.90
4002;DHT22;2015;48.670;9.060;2023-12-29T15:15:06;10.10;99.90
4002;DHT22;2015;48.670;9.060;2023-12-29T15:17:38;10.10;99.90
4002;DHT22;2015;48.670;9.060;2023-12-29T15:20:10;10.10;99.90
4002;DHT22;2015;48.670;9.060;2023-12-29T15:22:42;10.00;99.90
4002;DHT22;2015;48.670;9.060;2023-12-29T15:25:15;9.90;99.90
4002;DHT22;2015;48.670;9.060;2023-12-29T15:27:47;9.90;99.90
4002;DHT22;2015;48.670;9.060;2023-12-29T15:30:19;9.80;99.90
4002;DHT22;2015;48.670;9.060;2023-12-29T15:32:51;9.70;99.90
4002;DHT22;2015;48.670;9.060;2023-12-29T15:35:23;9.70;99.90
4002;DHT22;2015;48.670;9.060;2023-12-29T15:37:55;9.60;99.90
4002;DHT22;2015;48.670;9.060;2023-12-29T15:40:27;9.50;99.90
4002;DHT22;2015;48.670;9.060;2023-12-29T15:42:59;9.50;99.90
4002;DHT22;2015;48.670;9.060;2023-12-29T15:45:31;9.40;99.90
4002;DHT22;2015;48.670;9.060;2023-12-29T15:48:03;9.40;99.90
4002;DHT22;2015;48.670;9.060;2023-12-29T15:50:36;9.30;99.90
4002;DHT22;2015;48.670;9.060;2023-12-29T15:53:08;9.30;99.90
4002;DHT22;2015;48.670;9.060;2023-12-29T15:55:39;9.20;99.90
4002;DHT22;2015;48.670;9.060;2023-12-29T15:58:11;9.20;99.90
4002;DHT22;2015;48.670;9.060;2023-12-29T16:00:43;9.10;99.90
4002;DHT22;2015;48.670;9.060;2023-12-29T16:03:15;9.10;99.90
4002;DHT22;2015;48.670;9.060;2023-12-29T16:05:49;9.00;99.90
4002;DHT22;2015;48.670;9.060;2023-12-29T16:08:21;9.00;99.90
4002;DHT22;2015;48.670;9.060;2023-12-29T16:10:53;8.90;99.90
4002;DHT22;2015;48.670;9.060;2023-12-29T16:13:24;8.90;99.90
4002;DHT22;2015;48.670;9.060;2023-12-29T16:15:56;8.90;99.90
4002;DHT22;2015;48.670;9.060;2023-12-29T16:18:28;8.80;99.90
4002;DHT22;2015;48.670;9.060;2023-12-29T16:21:00;8.70;99.90
4002;DHT22;2015;48.670;9.060;2023-12-29T16:23:31;8.70;99.90
4002;DHT22;2015;48.670;9.060;2023-12-29T16:26:07;8.70;99.90
4002;DHT22;2015;48.670;9.060;2023-12-29T16:28:39;8.70;99.90
4002;DHT22;2015;48.670;9.060;2023-12-29T16:31:12;8.60;99.90
4002;DHT22;2015;48.670;9.060;2023-12-29T16:33:44;8.60;99.90
4002;DHT22;2015;48.670;9.060;2023-12-29T16:36:16;8.60;99.90
4002;DHT22;2015;48.670;9.060;2023-12-29T16:38:50;8.50;99.90
4002;DHT22;2015;48.670;9.060;2023-12-29T16:41:22;8.40;99.90
4002;DHT22;2015;48.670;9.060;2023-12-29T16:43:54;8.40;99.90
4002;DHT22;2015;48.670;9.060;2023-12-29T16:46:26;8.40;99.90
4002;DHT22;2015;48.670;9.060;2023-12-29T16:48:57;8.40;99.90
4002;DHT22;2015;48.670;9.060;2023-12-29T16:51:31;8.30;99.90
4002;DHT22;2015;48.670;9.060;2023-12-29T16:54:03;8.30;99.90
4002;DHT22;2015;48.670;9.060;2023-12-29T16:56:36;8.20;99.90
4002;DHT22;2015;48.670;9.060;2023-12-29T16:59:08;8.10;99.90
4002;DHT22;2015;48.670;9.060;2023-12-29T17:01:40;7.90;99.90
4002;DHT22;2015;48.670;9.060;2023-12-29T17:04:11;7.80;99.90